createdAt,value
2022-11-14T00:00:29.325Z,0.91
2022-11-14T00:03:00.545Z,0.97
2022-11-14T00:05:27.592Z,0.94
2022-11-14T00:07:54.130Z,0.97
2022-11-14T00:10:21.010Z,0.98
2022-11-14T00:12:47.774Z,0.89
2022-11-14T00:15:14.907Z,0.92
2022-11-14T00:17:41.567Z,0.95
2022-11-14T00:20:09.798Z,0.96
2022-11-14T00:22:36.566Z,1.05
2022-11-14T00:25:03.953Z,1.09
2022-11-14T00:27:30.533Z,1.06
2022-11-14T00:29:57.192Z,0.99
2022-11-14T00:32:24.149Z,0.97
2022-11-14T00:34:50.616Z,1.05
2022-11-14T00:37:17.264Z,0.95
2022-11-14T00:39:43.937Z,1.01
2022-11-14T00:42:10.498Z,0.89
2022-11-14T00:44:37.195Z,0.79
2022-11-14T00:47:03.935Z,0.81
2022-11-14T00:49:30.672Z,0.84
2022-11-14T00:51:57.282Z,0.70
2022-11-14T00:54:23.979Z,0.71
2022-11-14T00:56:50.567Z,0.65
2022-11-14T00:59:17.162Z,0.73
2022-11-14T01:01:43.968Z,0.66
2022-11-14T01:04:10.603Z,0.66
2022-11-14T01:06:37.178Z,0.69
2022-11-14T01:09:03.902Z,0.72
2022-11-14T01:11:30.702Z,0.69
2022-11-14T01:13:57.344Z,0.72
2022-11-14T01:16:23.923Z,0.73
2022-11-14T01:18:50.635Z,0.72
2022-11-14T01:21:17.380Z,0.76
2022-11-14T01:23:44.019Z,0.80
2022-11-14T01:26:13.453Z,0.80
2022-11-14T01:28:40.816Z,0.74
2022-11-14T01:31:22.137Z,0.73
2022-11-14T01:33:50.581Z,0.75
2022-11-14T01:36:18.175Z,0.79
2022-11-14T01:38:45.522Z,0.72
2022-11-14T01:41:16.637Z,0.78
2022-11-14T01:43:43.581Z,0.75
2022-11-14T01:46:22.556Z,0.79
2022-11-14T01:49:06.759Z,0.85
2022-11-14T01:51:39.232Z,0.84
2022-11-14T01:54:11.631Z,0.83
2022-11-14T01:56:46.938Z,0.84
2022-11-14T01:59:21.857Z,0.88
2022-11-14T02:01:50.750Z,0.86
2022-11-14T02:04:31.142Z,0.76
2022-11-14T02:07:01.206Z,0.78
2022-11-14T02:09:31.438Z,0.85
2022-11-14T02:12:01.130Z,0.87
2022-11-14T02:14:28.665Z,0.75
2022-11-14T02:17:22.693Z,0.70
2022-11-14T02:19:53.937Z,0.72
2022-11-14T02:22:20.624Z,0.70
2022-11-14T02:24:47.318Z,0.67
2022-11-14T02:27:15.412Z,0.68
2022-11-14T02:29:42.177Z,0.72
2022-11-14T02:32:10.823Z,0.72
2022-11-14T02:34:38.271Z,0.76
2022-11-14T02:37:04.952Z,0.74
2022-11-14T02:39:31.556Z,0.74
2022-11-14T02:41:58.234Z,0.76
2022-11-14T02:44:25.084Z,0.77
2022-11-14T02:46:51.728Z,0.77
2022-11-14T02:49:18.327Z,0.76
2022-11-14T02:51:45.119Z,0.76
2022-11-14T02:54:11.764Z,0.74
2022-11-14T02:56:38.476Z,0.75
2022-11-14T02:59:05.034Z,0.64
2022-11-14T03:01:31.779Z,0.65
2022-11-14T03:03:58.352Z,0.58
2022-11-14T03:06:25.057Z,0.55
2022-11-14T03:08:51.647Z,0.50
2022-11-14T03:11:18.379Z,0.50
2022-11-14T03:13:45.016Z,0.50
2022-11-14T03:16:13.233Z,0.45
2022-11-14T03:18:40.235Z,0.44
2022-11-14T03:21:18.824Z,0.44
2022-11-14T03:23:45.534Z,0.47
2022-11-14T03:26:13.670Z,0.53
2022-11-14T03:28:41.166Z,0.50
2022-11-14T03:31:10.433Z,0.53
2022-11-14T03:33:37.488Z,0.51
2022-11-14T03:36:05.468Z,0.44
2022-11-14T03:38:33.195Z,0.33
2022-11-14T03:41:00.570Z,0.28
2022-11-14T03:43:31.478Z,0.23
2022-11-14T03:45:59.776Z,0.15
2022-11-14T03:48:28.218Z,0.15
2022-11-14T03:50:55.895Z,0.13
2022-11-14T03:53:23.460Z,0.19
2022-11-14T03:55:51.496Z,0.16
2022-11-14T03:58:18.802Z,0.08
2022-11-14T04:00:45.489Z,0.07
2022-11-14T04:03:12.299Z,0.10
2022-11-14T04:05:38.990Z,0.13
2022-11-14T04:08:06.362Z,0.18
2022-11-14T04:10:33.129Z,0.18
2022-11-14T04:12:59.775Z,0.20
2022-11-14T04:15:26.447Z,0.20
2022-11-14T04:17:53.198Z,0.19
2022-11-14T04:20:19.942Z,0.22
2022-11-14T04:22:46.637Z,0.16
2022-11-14T04:25:13.404Z,0.12
2022-11-14T04:27:40.006Z,0.09
2022-11-14T04:30:07.352Z,0.06
2022-11-14T04:32:34.039Z,0.05
2022-11-14T04:35:00.653Z,0.06
2022-11-14T04:37:27.335Z,0.02
2022-11-14T04:39:58.766Z,0.05
2022-11-14T04:42:26.154Z,0.03
2022-11-14T04:44:52.826Z,-0.01
2022-11-14T04:47:20.616Z,-0.07
2022-11-14T04:49:47.260Z,-0.13
2022-11-14T04:52:13.941Z,-0.20
2022-11-14T04:54:40.770Z,-0.18
2022-11-14T04:57:07.328Z,-0.17
2022-11-14T04:59:33.925Z,-0.13
2022-11-14T05:02:00.610Z,-0.17
2022-11-14T05:04:27.334Z,-0.18
2022-11-14T05:06:54.063Z,-0.21
2022-11-14T05:09:20.711Z,-0.24
2022-11-14T05:11:47.361Z,-0.21
2022-11-14T05:14:14.140Z,-0.15
2022-11-14T05:16:40.846Z,-0.13
2022-11-14T05:19:07.456Z,-0.10
2022-11-14T05:21:34.151Z,-0.10
2022-11-14T05:24:00.984Z,-0.12
2022-11-14T05:26:27.591Z,-0.20
2022-11-14T05:28:54.213Z,-0.25
2022-11-14T05:31:20.967Z,-0.25
2022-11-14T05:33:48.177Z,-0.23
2022-11-14T05:36:16.929Z,-0.25
2022-11-14T05:38:44.169Z,-0.33
2022-11-14T05:41:14.085Z,-0.35
2022-11-14T05:43:41.489Z,-0.38
2022-11-14T05:46:11.143Z,-0.51
2022-11-14T05:48:38.466Z,-0.48
2022-11-14T05:51:06.965Z,-0.46
2022-11-14T05:53:35.120Z,-0.45
2022-11-14T05:56:06.195Z,-0.41
2022-11-14T05:58:34.331Z,-0.49
2022-11-14T06:01:09.533Z,-0.57
2022-11-14T06:03:39.619Z,-0.62
2022-11-14T06:06:08.384Z,-0.64
2022-11-14T06:08:35.719Z,-0.66
2022-11-14T06:11:12.465Z,-0.68
2022-11-14T06:13:39.472Z,-0.70
2022-11-14T06:16:09.683Z,-0.70
2022-11-14T06:18:36.739Z,-0.73
2022-11-14T06:21:06.631Z,-0.68
2022-11-14T06:23:33.346Z,-0.62
2022-11-14T06:26:01.974Z,-0.71
2022-11-14T06:28:29.570Z,-0.67
2022-11-14T06:31:03.809Z,-0.72
2022-11-14T06:33:34.598Z,-0.69
2022-11-14T06:36:03.484Z,-0.66
2022-11-14T06:38:35.439Z,-0.65
2022-11-14T06:41:20.229Z,-0.70
2022-11-14T06:43:49.006Z,-0.75
2022-11-14T06:46:19.349Z,-0.75
2022-11-14T06:48:47.372Z,-0.73
2022-11-14T06:51:15.540Z,-0.78
2022-11-14T06:53:42.927Z,-0.71
2022-11-14T06:56:12.028Z,-0.74
2022-11-14T06:58:41.907Z,-0.72
2022-11-14T07:01:11.788Z,-0.72
2022-11-14T07:03:38.361Z,-0.75
2022-11-14T07:06:05.905Z,-0.78
2022-11-14T07:08:33.367Z,-0.80
2022-11-14T07:11:05.484Z,-0.81
2022-11-14T07:13:33.066Z,-0.75
2022-11-14T07:16:00.072Z,-0.74
2022-11-14T07:18:27.197Z,-0.70
2022-11-14T07:21:06.155Z,-0.66
2022-11-14T07:23:36.079Z,-0.62
2022-11-14T07:26:07.140Z,-0.50
2022-11-14T07:28:42.623Z,-0.44
2022-11-14T07:31:14.911Z,-0.37
2022-11-14T07:33:42.794Z,-0.27
2022-11-14T07:36:10.685Z,-0.23
2022-11-14T07:38:38.413Z,-0.21
2022-11-14T07:41:08.419Z,-0.06
2022-11-14T07:43:35.100Z,-0.07
2022-11-14T07:46:06.761Z,0.17
2022-11-14T07:48:34.051Z,0.32
2022-11-14T07:51:02.534Z,0.36
2022-11-14T07:53:29.437Z,0.48
2022-11-14T07:55:57.423Z,0.60
2022-11-14T07:58:24.693Z,0.61
2022-11-14T08:00:51.672Z,0.65
2022-11-14T08:03:18.448Z,0.69
2022-11-14T08:05:45.265Z,0.68
2022-11-14T08:08:11.847Z,0.76
2022-11-14T08:10:38.689Z,0.87
2022-11-14T08:15:54.529Z,0.94
2022-11-14T08:18:21.595Z,1.07
2022-11-14T08:20:48.714Z,1.03
2022-11-14T08:23:15.657Z,1.10
2022-11-14T08:25:42.837Z,1.11
2022-11-14T08:28:09.654Z,1.40
2022-11-14T08:30:36.324Z,1.61
2022-11-14T08:33:04.555Z,1.70
2022-11-14T08:35:32.757Z,1.85
2022-11-14T08:38:01.545Z,1.92
2022-11-14T08:40:28.243Z,2.01
2022-11-14T08:43:02.193Z,2.12
2022-11-14T08:45:29.984Z,2.03
2022-11-14T08:47:57.390Z,2.20
2022-11-14T08:50:24.164Z,2.43
2022-11-14T08:52:52.259Z,2.48
2022-11-14T08:55:20.540Z,2.48
2022-11-14T08:57:49.764Z,2.69
2022-11-14T09:00:17.438Z,2.98
2022-11-14T09:02:44.843Z,3.40
2022-11-14T09:05:11.696Z,3.94
2022-11-14T09:07:41.095Z,4.35
2022-11-14T09:10:08.251Z,4.78
2022-11-14T09:12:35.258Z,5.22
2022-11-14T09:15:02.106Z,5.59
2022-11-14T09:17:28.821Z,5.63
2022-11-14T09:19:55.981Z,6.06
2022-11-14T09:22:22.853Z,6.27
2022-11-14T09:24:49.662Z,6.63
2022-11-14T09:27:17.332Z,6.99
2022-11-14T09:29:44.442Z,7.18
2022-11-14T09:32:11.115Z,7.53
2022-11-14T09:34:37.917Z,7.77
2022-11-14T09:37:04.632Z,7.76
2022-11-14T09:39:31.380Z,7.70
2022-11-14T09:42:17.480Z,7.37
2022-11-14T09:44:56.422Z,7.31
2022-11-14T09:47:30.443Z,7.79
2022-11-14T09:50:07.577Z,7.62
2022-11-14T09:52:37.021Z,7.34
2022-11-14T09:55:17.568Z,7.21
2022-11-14T09:57:46.196Z,7.29
2022-11-14T10:00:17.259Z,7.21
2022-11-14T10:03:08.991Z,7.53
2022-11-14T10:06:19.080Z,7.85
2022-11-14T10:08:54.360Z,7.97
2022-11-14T10:11:35.051Z,8.37
2022-11-14T10:14:01.577Z,8.93
2022-11-14T10:16:43.405Z,9.22
2022-11-14T10:19:10.932Z,9.23
2022-11-14T10:22:11.371Z,9.39
2022-11-14T10:25:14.010Z,9.43
2022-11-14T10:27:59.768Z,8.99
2022-11-14T10:30:40.485Z,9.59
2022-11-14T10:33:47.297Z,9.63
2022-11-14T10:36:19.543Z,9.60
2022-11-14T10:39:00.540Z,9.59
2022-11-14T10:41:55.010Z,9.40
2022-11-14T10:44:22.172Z,9.00
2022-11-14T10:46:54.133Z,9.18
2022-11-14T10:49:22.749Z,9.21
2022-11-14T10:51:55.949Z,9.11
2022-11-14T10:54:28.367Z,8.96
2022-11-14T10:56:55.671Z,8.67
2022-11-14T10:59:22.897Z,8.53
2022-11-14T11:01:55.392Z,8.33
2022-11-14T11:04:42.276Z,8.48
2022-11-14T11:07:09.045Z,8.58
2022-11-14T11:09:56.254Z,8.81
2022-11-14T11:12:25.648Z,8.46
2022-11-14T11:15:14.290Z,8.72
2022-11-14T11:17:54.810Z,8.39
2022-11-14T11:20:35.304Z,8.38
2022-11-14T11:23:25.187Z,8.63
2022-11-14T11:26:25.537Z,8.73
2022-11-14T11:29:08.933Z,8.82
2022-11-14T11:31:52.709Z,8.79
2022-11-14T11:34:27.928Z,8.86
2022-11-14T11:37:20.310Z,8.92
2022-11-14T11:39:52.849Z,9.05
2022-11-14T11:43:12.261Z,8.91
2022-11-14T11:45:20.342Z,9.06
2022-11-14T11:47:55.353Z,9.31
2022-11-14T11:50:24.758Z,9.45
2022-11-14T11:53:08.405Z,9.41
2022-11-14T11:55:43.328Z,9.54
2022-11-14T11:58:09.808Z,9.37
2022-11-14T12:00:36.477Z,9.08
2022-11-14T12:03:03.255Z,9.19
2022-11-14T12:05:34.793Z,9.12
2022-11-14T12:08:09.914Z,9.33
2022-11-14T12:10:39.755Z,8.95
2022-11-14T12:13:15.155Z,9.28
2022-11-14T12:15:41.705Z,9.22
2022-11-14T12:18:14.191Z,9.53
2022-11-14T12:21:04.672Z,9.20
2022-11-14T12:24:02.700Z,9.19
2022-11-14T12:26:57.367Z,9.41
2022-11-14T12:29:26.749Z,9.34
2022-11-14T12:32:06.810Z,9.44
2022-11-14T12:34:44.026Z,9.62
2022-11-14T12:37:38.569Z,9.66
2022-11-14T12:40:22.543Z,9.71
2022-11-14T12:42:49.671Z,9.72
2022-11-14T12:45:41.222Z,9.99
2022-11-14T12:48:25.979Z,10.07
2022-11-14T12:50:57.508Z,10.01
2022-11-14T12:53:39.509Z,10.22
2022-11-14T12:56:24.985Z,10.29
2022-11-14T12:59:10.038Z,10.13
2022-11-14T13:01:51.953Z,10.09
2022-11-14T13:04:42.829Z,10.08
2022-11-14T13:07:18.604Z,10.04
2022-11-14T13:10:12.242Z,10.06
2022-11-14T13:12:58.276Z,9.86
2022-11-14T13:16:12.830Z,10.00
2022-11-14T13:19:19.867Z,9.70
2022-11-14T13:22:11.039Z,9.67
2022-11-14T13:24:58.487Z,9.43
2022-11-14T13:28:05.465Z,9.35
2022-11-14T13:31:00.795Z,9.49
2022-11-14T13:33:44.866Z,9.66
2022-11-14T13:36:25.203Z,9.61
2022-11-14T13:39:10.050Z,9.51
2022-11-14T13:41:56.820Z,9.37
2022-11-14T13:44:49.164Z,9.42
2022-11-14T13:47:22.078Z,9.48
2022-11-14T13:50:31.350Z,9.57
2022-11-14T13:52:58.851Z,9.54
2022-11-14T13:55:52.386Z,9.60
2022-11-14T13:58:24.897Z,9.53
2022-11-14T14:01:11.951Z,9.72
2022-11-14T14:03:45.833Z,9.71
2022-11-14T14:06:44.779Z,9.58
2022-11-14T14:09:20.152Z,9.51
2022-11-14T14:12:07.067Z,9.31
2022-11-14T14:14:57.667Z,9.27
2022-11-14T14:17:27.318Z,9.23
2022-11-14T14:20:12.200Z,9.17
2022-11-14T14:22:47.843Z,9.17
2022-11-14T14:25:17.618Z,9.24
2022-11-14T14:28:09.221Z,9.17
2022-11-14T14:30:35.971Z,9.03
2022-11-14T14:33:08.750Z,8.96
2022-11-14T14:35:40.620Z,8.94
2022-11-14T14:38:23.239Z,8.88
2022-11-14T14:40:50.106Z,8.81
2022-11-14T14:43:30.085Z,8.74
2022-11-14T14:45:57.091Z,8.68
2022-11-14T14:48:27.070Z,8.59
2022-11-14T14:50:56.167Z,8.55
2022-11-14T14:53:30.093Z,8.53
2022-11-14T14:56:02.775Z,8.36
2022-11-14T14:58:33.233Z,8.35
2022-11-14T15:01:03.274Z,8.30
2022-11-14T15:03:42.983Z,8.21
2022-11-14T15:06:34.886Z,8.12
2022-11-14T15:09:17.587Z,8.13
2022-11-14T15:11:48.249Z,8.02
2022-11-14T15:14:22.257Z,8.05
2022-11-14T15:16:51.020Z,7.93
2022-11-14T15:19:23.049Z,7.78
2022-11-14T15:22:05.938Z,7.77
2022-11-14T15:24:32.859Z,7.68
2022-11-14T15:27:04.805Z,7.53
2022-11-14T15:29:33.302Z,7.44
2022-11-14T15:32:02.569Z,7.30
2022-11-14T15:34:34.773Z,7.18
2022-11-14T15:37:10.610Z,7.10
2022-11-14T15:39:38.265Z,6.92
2022-11-14T15:42:29.437Z,6.83
2022-11-14T15:44:56.436Z,6.60
2022-11-14T15:47:26.064Z,6.48
2022-11-14T15:50:05.032Z,6.38
2022-11-14T15:52:39.421Z,6.33
2022-11-14T15:55:24.494Z,6.25
2022-11-14T15:58:06.696Z,6.24
2022-11-14T16:00:43.143Z,6.15
2022-11-14T16:03:12.613Z,6.10
2022-11-14T16:05:39.301Z,6.13
2022-11-14T16:08:05.908Z,6.12
2022-11-14T16:10:32.585Z,6.09
2022-11-14T16:12:59.171Z,5.94
2022-11-14T16:15:25.864Z,5.85
2022-11-14T16:17:52.444Z,5.82
2022-11-14T16:20:21.659Z,5.83
2022-11-14T16:22:49.629Z,6.08
2022-11-14T16:25:22.666Z,6.64
2022-11-14T16:27:49.362Z,6.92
2022-11-14T16:30:18.966Z,7.36
2022-11-14T16:32:48.789Z,7.60
2022-11-14T16:35:18.182Z,7.73
2022-11-14T16:37:45.184Z,7.97
2022-11-14T16:40:23.646Z,7.98
2022-11-14T16:42:50.518Z,8.01
2022-11-14T16:45:20.510Z,8.26
2022-11-14T16:47:48.142Z,8.50
2022-11-14T16:50:14.996Z,8.78
2022-11-14T16:52:41.684Z,8.98
2022-11-14T16:55:10.142Z,9.05
2022-11-14T16:57:37.405Z,8.97
2022-11-14T17:00:10.751Z,8.94
2022-11-14T17:02:37.441Z,9.07
2022-11-14T17:05:04.244Z,9.17
2022-11-14T17:07:33.085Z,9.17
2022-11-14T17:10:00.844Z,9.14
2022-11-14T17:12:28.478Z,9.27
2022-11-14T17:14:55.167Z,9.22
2022-11-14T17:17:21.734Z,9.37
2022-11-14T17:19:48.566Z,9.34
2022-11-14T17:22:16.587Z,9.42
2022-11-14T17:24:43.319Z,9.40
2022-11-14T17:27:12.839Z,9.35
2022-11-14T17:29:39.712Z,9.21
2022-11-14T17:32:06.385Z,9.13
2022-11-14T17:34:33.057Z,9.03
2022-11-14T17:36:59.701Z,8.89
2022-11-14T17:39:26.438Z,8.88
2022-11-14T17:41:53.409Z,8.90
2022-11-14T17:44:20.024Z,8.97
2022-11-14T17:46:47.629Z,9.07
2022-11-14T17:49:14.300Z,9.18
2022-11-14T17:51:40.875Z,9.16
2022-11-14T17:54:07.545Z,9.14
2022-11-14T17:56:34.235Z,9.16
2022-11-14T17:59:00.819Z,9.08
2022-11-14T18:01:30.308Z,9.10
2022-11-14T18:04:01.642Z,9.08
2022-11-14T18:06:29.792Z,9.07
2022-11-14T18:08:56.391Z,9.11
2022-11-14T18:11:23.038Z,9.00
2022-11-14T18:13:54.405Z,8.94
2022-11-14T18:16:21.209Z,8.96
2022-11-14T18:18:47.896Z,8.89
2022-11-14T18:21:19.953Z,8.89
2022-11-14T18:23:55.168Z,8.83
2022-11-14T18:26:27.272Z,8.79
2022-11-14T18:28:55.268Z,8.78
2022-11-14T18:31:21.887Z,8.80
2022-11-14T18:33:48.653Z,8.66
2022-11-14T18:36:15.716Z,8.61
2022-11-14T18:38:42.574Z,8.48
2022-11-14T18:41:13.090Z,8.50
2022-11-14T18:43:40.031Z,8.41
2022-11-14T18:46:08.949Z,8.40
2022-11-14T18:48:39.577Z,8.32
2022-11-14T18:51:11.764Z,8.30
2022-11-14T18:53:38.580Z,8.31
2022-11-14T18:56:13.898Z,8.24
2022-11-14T18:58:41.782Z,8.39
2022-11-14T19:01:37.584Z,8.33
2022-11-14T19:04:06.792Z,8.27
2022-11-14T19:06:35.649Z,8.28
2022-11-14T19:09:10.839Z,8.14
2022-11-14T19:11:57.256Z,8.08
2022-11-14T19:14:24.202Z,8.19
2022-11-14T19:16:50.847Z,8.09
2022-11-14T19:19:17.464Z,8.03
2022-11-14T19:21:44.533Z,8.00
2022-11-14T19:24:11.196Z,7.98
2022-11-14T19:26:37.913Z,7.98
2022-11-14T19:29:07.056Z,7.88
2022-11-14T19:31:34.001Z,7.90
2022-11-14T19:34:01.286Z,7.82
2022-11-14T19:36:57.611Z,7.72
2022-11-14T19:39:14.764Z,7.71
2022-11-14T19:41:41.462Z,7.69
2022-11-14T19:44:08.232Z,7.74
2022-11-14T19:46:36.889Z,7.76
2022-11-14T19:49:04.156Z,7.77
2022-11-14T19:51:32.942Z,7.75
2022-11-14T19:54:01.521Z,7.72
2022-11-14T19:56:28.291Z,7.73
2022-11-14T19:58:58.756Z,7.75
2022-11-14T20:01:27.648Z,7.67
2022-11-14T20:03:56.983Z,7.76
2022-11-14T20:06:27.632Z,7.78
2022-11-14T20:08:55.393Z,7.83
2022-11-14T20:11:23.651Z,7.84
2022-11-14T20:13:50.194Z,7.91
2022-11-14T20:16:23.274Z,7.91
2022-11-14T20:18:57.418Z,8.05
2022-11-14T20:21:26.756Z,8.12
2022-11-14T20:23:53.796Z,8.18
2022-11-14T20:26:21.114Z,8.22
2022-11-14T20:28:50.432Z,8.28
2022-11-14T20:31:20.441Z,8.25
2022-11-14T20:33:49.162Z,8.27
2022-11-14T20:36:18.713Z,8.27
2022-11-14T20:38:45.641Z,8.29
2022-11-14T20:41:12.803Z,8.35
2022-11-14T20:43:39.980Z,8.33
2022-11-14T20:46:12.719Z,8.35
2022-11-14T20:48:40.271Z,8.41
2022-11-14T20:51:19.639Z,8.38
2022-11-14T20:53:47.667Z,8.52
2022-11-14T20:56:15.025Z,8.49
2022-11-14T20:58:42.596Z,8.43
2022-11-14T21:01:09.768Z,8.44
2022-11-14T21:03:37.038Z,8.49
2022-11-14T21:06:04.600Z,8.46
2022-11-14T21:08:36.427Z,8.57
2022-11-14T21:11:05.717Z,8.57
2022-11-14T21:13:54.080Z,8.54
2022-11-14T21:16:21.356Z,8.54
2022-11-14T21:18:48.419Z,8.54
2022-11-14T21:21:18.067Z,8.57
2022-11-14T21:23:46.046Z,8.57
2022-11-14T21:26:15.491Z,8.65
2022-11-14T21:28:44.107Z,8.74
2022-11-14T21:31:25.235Z,8.74
2022-11-14T21:33:55.285Z,8.75
2022-11-14T21:36:43.678Z,8.91
2022-11-14T21:39:08.821Z,8.99
2022-11-14T21:41:35.401Z,8.97
2022-11-14T21:44:03.484Z,9.00
2022-11-14T21:46:30.384Z,8.99
2022-11-14T21:48:57.858Z,9.07
2022-11-14T21:51:27.245Z,9.05
2022-11-14T21:53:56.410Z,9.19
2022-11-14T21:56:25.819Z,9.30
2022-11-14T21:59:12.985Z,9.35
2022-11-14T22:02:10.299Z,9.42
2022-11-14T22:04:37.669Z,9.45
2022-11-14T22:07:06.509Z,9.45
2022-11-14T22:09:34.015Z,9.50
2022-11-14T22:12:01.198Z,9.47
2022-11-14T22:14:27.864Z,9.50
2022-11-14T22:16:54.393Z,9.43
2022-11-14T22:19:21.054Z,9.36
2022-11-14T22:21:47.782Z,9.34
2022-11-14T22:24:14.414Z,9.46
2022-11-14T22:26:41.513Z,9.52
2022-11-14T22:29:08.976Z,9.55
2022-11-14T22:31:37.507Z,9.53
2022-11-14T22:34:04.161Z,9.58
2022-11-14T22:36:30.911Z,9.66
2022-11-14T22:38:57.968Z,9.66
2022-11-14T22:41:30.474Z,9.72
2022-11-14T22:43:59.423Z,9.68
2022-11-14T22:46:27.482Z,9.70
2022-11-14T22:48:54.898Z,9.80
2022-11-14T22:51:26.578Z,9.88
2022-11-14T22:53:58.030Z,9.90
2022-11-14T22:56:27.766Z,9.90
2022-11-14T22:58:55.208Z,9.87
2022-11-14T23:01:31.244Z,10.03
2022-11-14T23:04:00.745Z,10.06
2022-11-14T23:06:28.954Z,10.03
2022-11-14T23:08:55.946Z,10.14
2022-11-14T23:11:25.629Z,10.17
2022-11-14T23:13:54.896Z,10.22
2022-11-14T23:16:24.088Z,10.23
2022-11-14T23:18:53.217Z,10.22
2022-11-14T23:21:22.549Z,10.23
2022-11-14T23:23:54.276Z,10.23
2022-11-14T23:26:21.616Z,10.24
2022-11-14T23:28:49.303Z,10.13
2022-11-14T23:31:19.514Z,10.14
2022-11-14T23:33:50.682Z,10.25
2022-11-14T23:36:17.979Z,10.27
2022-11-14T23:38:44.672Z,10.33
2022-11-14T23:41:19.736Z,10.38
2022-11-14T23:43:47.471Z,10.29
2022-11-14T23:46:14.629Z,10.35
2022-11-14T23:48:41.216Z,10.48
2022-11-14T23:51:07.960Z,10.54
2022-11-14T23:53:34.686Z,10.52
2022-11-14T23:56:02.451Z,10.50
2022-11-14T23:58:30.311Z,10.49
